Time;durP1;ratioP1;P1;durP2;ratioP2;P2;SDS_P1;SDS_P2;PMS_P1;PMS_P2;Temp;Humidity;BMP_temperature;BMP_pressure;BME280_temperature;BME280_humidity;BME280_pressure;Samples;Min_cycle;Max_cycle;Signal;HPM_P1;HPM_P2
2023/05/08 00:00:03;;;;;;;2.72;1.73;;;;;;;10.98;56.19;102747.44;5058972;28;20043;-73
2023/05/08 00:02:29;;;;;;;5.57;2.03;;;;;;;10.93;56.43;102748.94;5057518;28;20029;-73
2023/05/08 00:04:55;;;;;;;6.00;1.90;;;;;;;10.99;55.88;102770.72;5057957;28;20029;-73
2023/05/08 00:07:20;;;;;;;2.90;2.05;;;;;;;10.96;55.56;102775.53;5058932;28;20381;-73
2023/05/08 00:09:46;;;;;;;5.40;1.90;;;;;;;10.97;54.94;102777.25;5057817;28;20055;-72
2023/05/08 00:12:11;;;;;;;3.08;2.17;;;;;;;10.88;54.41;102762.00;5059341;28;20103;-72
2023/05/08 00:14:36;;;;;;;5.32;2.05;;;;;;;10.98;54.29;102778.94;5041218;28;20061;-73
2023/05/08 00:17:02;;;;;;;5.38;2.10;;;;;;;10.86;54.00;102758.59;5059579;28;20093;-73
2023/05/08 00:19:27;;;;;;;4.60;2.38;;;;;;;10.74;53.43;102750.75;5059364;28;20463;-73
2023/05/08 00:21:53;;;;;;;5.22;2.13;;;;;;;10.85;53.38;102773.91;5058684;28;20395;-73
2023/05/08 00:24:18;;;;;;;5.47;2.40;;;;;;;10.88;53.09;102778.16;5057879;28;20033;-73
2023/05/08 00:26:44;;;;;;;3.83;2.03;;;;;;;10.76;52.69;102755.97;5025099;28;20452;-72
2023/05/08 00:29:10;;;;;;;5.10;1.92;;;;;;;10.86;52.44;102782.84;5061623;28;20049;-73
2023/05/08 00:31:35;;;;;;;3.03;1.80;;;;;;;10.72;52.30;102763.50;5049674;28;20029;-73
2023/05/08 00:34:01;;;;;;;8.75;2.15;;;;;;;10.80;52.01;102778.94;5025406;28;20118;-72
2023/05/08 00:36:27;;;;;;;2.92;1.90;;;;;;;10.70;52.31;102772.75;5038548;28;20071;-72
2023/05/08 00:38:52;;;;;;;5.78;1.90;;;;;;;10.76;51.95;102781.06;5040228;28;20268;-73
2023/05/08 00:41:18;;;;;;;4.57;2.10;;;;;;;10.71;52.06;102774.44;5058713;28;20036;-73
2023/05/08 00:43:43;;;;;;;5.03;2.13;;;;;;;10.69;52.08;102779.97;5045182;28;20048;-73
2023/05/08 00:46:09;;;;;;;5.32;1.90;;;;;;;10.68;51.41;102783.66;5059795;28;20131;-73
2023/05/08 00:48:35;;;;;;;6.40;1.73;;;;;;;10.67;51.32;102786.53;5025012;28;20032;-73
2023/05/08 00:51:05;;;;;;;5.20;1.80;;;;;;;10.69;51.12;102787.19;5055944;28;20045;-73
2023/05/08 00:53:35;;;;;;;4.93;1.90;;;;;;;10.64;50.92;102778.75;5055995;28;20028;-73
2023/05/08 00:56:01;;;;;;;7.75;2.00;;;;;;;10.68;51.24;102789.06;5064451;28;20080;-73
2023/05/08 00:58:27;;;;;;;4.88;2.17;;;;;;;10.65;50.47;102781.28;5053217;28;20071;-73
2023/05/08 01:00:56;;;;;;;6.57;2.20;;;;;;;10.60;50.38;102788.97;5035308;28;20025;-73
2023/05/08 01:03:22;;;;;;;6.03;1.90;;;;;;;10.60;50.43;102797.03;5058031;28;20070;-72
2023/05/08 01:05:48;;;;;;;3.97;1.83;;;;;;;10.58;50.01;102796.34;5056928;28;20238;-72
2023/05/08 01:08:14;;;;;;;4.97;1.80;;;;;;;10.54;50.29;102801.19;5056604;28;20146;-73
2023/05/08 01:10:54;;;;;;;7.47;1.63;;;;;;;10.53;49.72;102804.88;5057902;28;20040;-73
2023/05/08 01:13:59;;;;;;;6.50;2.08;;;;;;;10.47;49.50;102800.09;5062880;28;20025;-73
2023/05/08 01:16:37;;;;;;;7.40;2.28;;;;;;;10.45;49.89;102801.22;5040560;28;20047;-72
2023/05/08 01:19:22;;;;;;;4.00;1.75;;;;;;;10.42;49.94;102804.22;5069134;28;20028;-72
2023/05/08 01:21:59;;;;;;;5.13;1.75;;;;;;;10.37;49.66;102804.69;5063419;28;20105;-73
2023/05/08 01:24:36;;;;;;;4.35;1.80;;;;;;;10.35;49.36;102807.50;5062542;28;20028;-73
2023/05/08 01:27:28;;;;;;;4.40;1.70;;;;;;;10.30;48.99;102811.66;5059236;28;20033;-73
2023/05/08 01:30:05;;;;;;;6.30;1.88;;;;;;;10.24;49.22;102806.81;5038352;28;20053;-72
2023/05/08 01:32:40;;;;;;;4.32;2.45;;;;;;;10.17;49.71;102797.66;5057770;28;20056;-72
2023/05/08 01:35:06;;;;;;;4.00;1.80;;;;;;;10.16;48.96;102807.53;5057744;28;20033;-72
2023/05/08 01:37:41;;;;;;;3.63;1.88;;;;;;;10.15;49.01;102811.22;5059184;28;20096;-72
2023/05/08 01:40:20;;;;;;;5.40;1.80;;;;;;;9.99;49.52;102786.78;5060096;28;20131;-72
2023/05/08 01:43:05;;;;;;;5.70;1.80;;;;;;;10.11;49.21;102809.84;5060198;28;20407;-73
2023/05/08 01:45:37;;;;;;;8.95;1.90;;;;;;;10.01;48.81;102803.66;5062154;28;20028;-73
2023/05/08 01:48:12;;;;;;;5.72;2.03;;;;;;;10.06;48.88;102812.94;5069841;28;20084;-72
2023/05/08 01:50:51;;;;;;;3.88;1.60;;;;;;;10.07;48.74;102817.34;5066192;28;20050;-72
2023/05/08 01:53:28;;;;;;;3.67;1.60;;;;;;;10.03;48.79;102829.41;5062372;28;20100;-73
2023/05/08 01:55:57;;;;;;;3.63;1.88;;;;;;;10.00;49.20;102828.81;5059907;28;20031;-72
2023/05/08 01:58:24;;;;;;;4.07;1.85;;;;;;;9.96;48.24;102820.19;5062053;28;20051;-72
2023/05/08 02:00:50;;;;;;;5.85;1.80;;;;;;;9.91;48.54;102824.34;5059943;28;20044;-73
2023/05/08 02:03:17;;;;;;;3.72;1.77;;;;;;;9.87;48.48;102823.78;5060410;28;20099;-72
2023/05/08 02:05:44;;;;;;;4.05;1.73;;;;;;;9.85;48.63;102829.28;5059644;28;20124;-73
2023/05/08 02:08:12;;;;;;;3.53;1.50;;;;;;;9.85;48.29;102826.59;5059002;28;20044;-73
2023/05/08 02:10:40;;;;;;;2.80;1.80;;;;;;;9.78;47.87;102822.81;5060206;28;20025;-72
2023/05/08 02:13:08;;;;;;;6.38;1.50;;;;;;;9.80;47.83;102831.59;5059420;28;20017;-72
2023/05/08 02:15:36;;;;;;;3.75;1.65;;;;;;;9.76;48.20;102835.53;5060809;28;20033;-73
2023/05/08 02:18:07;;;;;;;5.18;1.50;;;;;;;9.70;48.38;102835.25;5042776;28;20032;-73
2023/05/08 02:20:33;;;;;;;4.68;1.88;;;;;;;9.67;48.05;102830.16;5059531;28;20108;-72
2023/05/08 02:23:01;;;;;;;2.60;1.58;;;;;;;9.66;47.90;102834.69;5059421;28;20432;-73
2023/05/08 02:25:29;;;;;;;4.47;1.60;;;;;;;9.61;47.91;102834.28;5059755;28;20029;-72
2023/05/08 02:27:56;;;;;;;5.60;1.52;;;;;;;9.56;47.69;102825.78;5060021;28;20024;-72
2023/05/08 02:30:23;;;;;;;6.03;1.77;;;;;;;9.56;48.11;102825.78;5039537;28;20035;-72
2023/05/08 02:32:52;;;;;;;2.97;1.67;;;;;;;9.53;48.28;102828.75;5060498;28;20391;-72
2023/05/08 02:35:19;;;;;;;2.63;1.60;;;;;;;9.33;48.09;102801.06;5058381;28;20044;-73
2023/05/08 02:37:54;;;;;;;3.75;1.65;;;;;;;9.39;47.82;102819.31;5044554;28;20025;-72
2023/05/08 02:40:21;;;;;;;3.05;1.70;;;;;;;9.34;48.41;102827.81;5065623;28;20032;-72
2023/05/08 02:42:48;;;;;;;4.95;1.80;;;;;;;9.31;47.50;102820.03;5062508;28;20031;-73
2023/05/08 02:45:14;;;;;;;3.22;1.60;;;;;;;9.28;47.30;102825.69;5061884;28;20025;-72
2023/05/08 02:47:42;;;;;;;3.13;1.83;;;;;;;9.32;47.31;102824.41;5060914;28;20033;-72
2023/05/08 02:50:07;;;;;;;4.35;1.98;;;;;;;9.28;47.68;102824.84;5061904;28;20020;-73
2023/05/08 02:52:44;;;;;;;3.17;1.60;;;;;;;9.19;47.89;102807.72;5061742;28;20025;-72
2023/05/08 02:55:42;;;;;;;6.47;1.90;;;;;;;9.21;47.81;102829.06;5064803;28;20025;-73
2023/05/08 02:58:57;;;;;;;3.33;1.65;;;;;;;9.19;47.46;102826.50;5046965;28;20052;-72
2023/05/08 03:01:23;;;;;;;4.90;1.70;;;;;;;9.11;47.47;102826.38;5047214;28;20108;-72
2023/05/08 03:03:58;;;;;;;4.90;1.92;;;;;;;9.08;47.44;102824.81;5058605;28;20040;-72
2023/05/08 03:06:26;;;;;;;3.40;1.75;;;;;;;9.05;47.89;102824.25;5058251;28;20027;-73
2023/05/08 03:08:56;;;;;;;4.60;1.80;;;;;;;9.03;47.62;102821.69;5059503;28;20604;-73
2023/05/08 03:11:29;;;;;;;3.88;1.70;;;;;;;9.03;47.70;102818.16;5060962;28;20028;-72
2023/05/08 03:13:57;;;;;;;5.55;1.60;;;;;;;9.00;47.38;102818.44;5058920;28;20253;-72
2023/05/08 03:16:25;;;;;;;3.63;1.95;;;;;;;8.89;47.84;102798.78;5059419;28;20032;-72
2023/05/08 03:19:02;;;;;;;7.57;1.95;;;;;;;8.99;47.88;102798.78;5043156;28;20040;-73
2023/05/08 03:21:29;;;;;;;3.53;1.65;;;;;;;9.27;46.66;102813.25;5059016;28;20057;-72
2023/05/08 03:23:59;;;;;;;3.92;1.55;;;;;;;9.29;47.08;102813.94;5058894;28;20104;-72
2023/05/08 03:26:25;;;;;;;2.10;1.48;;;;;;;9.17;47.47;102802.50;5057592;28;20021;-73
2023/05/08 03:28:52;;;;;;;4.80;1.70;;;;;;;9.13;47.27;102797.53;5056338;28;20052;-73
2023/05/08 03:31:20;;;;;;;5.72;2.60;;;;;;;9.07;47.89;102801.66;5057852;28;20491;-72
2023/05/08 03:33:46;;;;;;;4.25;1.73;;;;;;;8.89;47.99;102796.09;5057411;28;20068;-72
2023/05/08 03:36:13;;;;;;;5.50;2.05;;;;;;;9.13;47.63;102802.91;5039535;28;20052;-74
2023/05/08 03:38:39;;;;;;;4.50;1.98;;;;;;;9.27;47.52;102804.31;5055916;28;20040;-72
2023/05/08 03:41:05;;;;;;;4.38;1.77;;;;;;;9.40;47.13;102792.31;5039896;28;20116;-72
2023/05/08 03:43:31;;;;;;;3.83;1.77;;;;;;;10.33;45.41;102773.66;5056684;28;20032;-72
2023/05/08 03:45:57;;;;;;;4.28;1.60;;;;;;;10.57;44.42;102794.66;5055635;28;20491;-72
2023/05/08 03:48:23;;;;;;;2.83;1.90;;;;;;;10.56;44.64;102796.50;5056753;28;20087;-73
2023/05/08 03:50:49;;;;;;;4.13;1.80;;;;;;;10.85;44.60;102802.69;5064161;28;20425;-72
2023/05/08 03:53:15;;;;;;;4.82;1.73;;;;;;;11.94;42.86;102793.38;5059319;28;20035;-73
2023/05/08 03:55:40;;;;;;;6.47;2.10;;;;;;;12.79;41.13;102803.38;5057973;28;20029;-72
2023/05/08 03:58:24;;;;;;;4.25;1.83;;;;;;;13.35;40.19;102799.94;5061238;28;20503;-72
2023/05/08 04:01:05;;;;;;;2.10;1.73;;;;;;;13.74;39.20;102788.41;5062025;28;20037;-72
2023/05/08 04:03:42;;;;;;;5.55;1.80;;;;;;;14.22;38.73;102804.69;5058338;28;20032;-72
2023/05/08 04:06:16;;;;;;;4.38;1.67;;;;;;;14.18;38.03;102751.91;5058617;28;20093;-73
2023/05/08 04:08:54;;;;;;;5.22;1.80;;;;;;;14.83;37.88;102799.53;5059168;28;20031;-72
2023/05/08 04:11:38;;;;;;;4.15;2.20;;;;;;;15.22;37.10;102794.00;5055376;28;20127;-72
2023/05/08 04:14:06;;;;;;;4.70;2.30;;;;;;;15.39;36.77;102789.28;5057949;28;20043;-72
2023/05/08 04:16:37;;;;;;;5.15;1.83;;;;;;;15.55;36.23;102794.56;5057390;28;20033;-72
2023/05/08 04:19:09;;;;;;;6.07;1.95;;;;;;;15.68;36.03;102786.69;5057120;28;20388;-72
2023/05/08 04:21:38;;;;;;;4.43;2.10;;;;;;;15.77;35.58;102782.03;5057766;28;20060;-72
2023/05/08 04:24:07;;;;;;;4.82;1.75;;;;;;;16.19;35.44;102781.38;5055726;28;20440;-72
2023/05/08 04:26:33;;;;;;;3.10;1.70;;;;;;;16.37;34.63;102780.16;5055070;28;20029;-70
2023/05/08 04:28:59;;;;;;;5.93;1.77;;;;;;;16.60;34.27;102782.72;5055241;28;20048;-70
2023/05/08 04:31:26;;;;;;;5.13;1.70;;;;;;;16.63;34.31;102785.91;5039207;28;20029;-71
2023/05/08 04:33:53;;;;;;;3.50;1.83;;;;;;;16.78;33.68;102775.00;5054709;28;20219;-72
2023/05/08 04:36:18;;;;;;;6.35;1.80;;;;;;;16.95;33.82;102777.50;5056667;28;20116;-72
2023/05/08 04:38:44;;;;;;;5.10;1.70;;;;;;;17.25;33.37;102789.94;5054948;28;20064;-72
2023/05/08 04:41:09;;;;;;;4.63;1.70;;;;;;;16.86;33.41;102760.47;5054463;28;20043;-72
2023/05/08 04:43:35;;;;;;;7.38;2.20;;;;;;;17.29;33.29;102779.50;5023112;28;20075;-71
2023/05/08 04:46:04;;;;;;;5.40;1.75;;;;;;;17.50;33.06;102781.34;5062616;28;20084;-71
2023/05/08 04:48:31;;;;;;;3.67;1.80;;;;;;;17.25;33.02;102767.31;5061786;28;20036;-72
2023/05/08 04:50:57;;;;;;;5.53;1.90;;;;;;;17.09;33.25;102779.31;5061320;28;20052;-71
2023/05/08 04:53:23;;;;;;;3.45;1.90;;;;;;;17.27;33.17;102771.53;5044890;28;20083;-71
2023/05/08 04:55:48;;;;;;;6.22;1.73;;;;;;;16.39;33.75;102770.78;5057350;28;20025;-73
2023/05/08 04:58:13;;;;;;;8.00;1.98;;;;;;;16.07;34.19;102771.19;5039198;28;20111;-72
2023/05/08 05:00:39;;;;;;;4.43;1.90;;;;;;;16.30;34.05;102769.19;5039279;28;20028;-73
2023/05/08 05:03:04;;;;;;;4.75;1.83;;;;;;;16.33;33.94;102767.97;5037042;28;20464;-73
2023/05/08 05:05:30;;;;;;;6.55;1.77;;;;;;;16.65;33.31;102775.69;5035495;28;20029;-72
2023/05/08 05:07:55;;;;;;;3.70;1.67;;;;;;;16.66;33.43;102787.41;5053682;28;20052;-73
2023/05/08 05:10:20;;;;;;;4.70;1.98;;;;;;;16.33;33.87;102781.56;5036667;28;20032;-73
2023/05/08 05:12:46;;;;;;;4.47;1.60;;;;;;;15.79;34.06;102762.81;5040756;28;20035;-72
2023/05/08 05:15:11;;;;;;;3.80;1.73;;;;;;;16.90;33.28;102784.34;5060436;28;20067;-71
2023/05/08 05:17:37;;;;;;;7.75;1.90;;;;;;;16.75;33.39;102785.44;5042593;28;20035;-72
2023/05/08 05:20:04;;;;;;;5.72;1.70;;;;;;;16.11;33.82;102778.75;5059094;28;20061;-72
2023/05/08 05:22:32;;;;;;;8.52;1.90;;;;;;;16.61;33.21;102789.84;5058541;28;20108;-74
2023/05/08 05:24:57;;;;;;;9.82;1.95;;;;;;;16.21;33.55;102768.44;5059120;28;20136;-74
2023/05/08 05:27:23;;;;;;;5.95;1.90;;;;;;;16.20;33.55;102788.50;5061057;28;20119;-74
2023/05/08 05:29:49;;;;;;;6.57;1.90;;;;;;;14.57;36.26;102788.00;5046082;28;20503;-73
2023/05/08 05:32:15;;;;;;;7.32;1.88;;;;;;;14.43;37.08;102791.41;5029633;28;20107;-72
2023/05/08 05:34:40;;;;;;;17.67;2.60;;;;;;;14.17;37.05;102783.56;5063538;28;20092;-73
2023/05/08 05:37:06;;;;;;;10.55;2.08;;;;;;;13.93;37.14;102776.34;5061931;28;20078;-72
2023/05/08 05:39:31;;;;;;;13.85;2.25;;;;;;;13.80;37.25;102766.06;5042744;28;20044;-73
2023/05/08 05:41:57;;;;;;;14.70;2.20;;;;;;;14.16;36.52;102771.03;5061515;28;20037;-74
2023/05/08 05:44:22;;;;;;;5.53;1.75;;;;;;;14.65;36.06;102788.97;5047982;28;20552;-73
2023/05/08 05:46:48;;;;;;;9.85;2.25;;;;;;;14.49;36.17;102744.66;5029543;28;20060;-74
2023/05/08 05:49:13;;;;;;;10.93;1.67;;;;;;;15.09;36.06;102789.19;5043313;28;20036;-73
2023/05/08 05:51:39;;;;;;;11.60;1.88;;;;;;;14.97;35.84;102791.47;5054445;28;20061;-73
2023/05/08 05:54:04;;;;;;;8.05;1.77;;;;;;;14.78;35.43;102776.53;5039946;28;20088;-72
2023/05/08 05:56:30;;;;;;;11.48;1.95;;;;;;;14.54;35.59;102796.47;5042989;28;20033;-73
2023/05/08 05:58:55;;;;;;;8.55;2.13;;;;;;;14.54;35.67;102785.63;5059832;28;20488;-73
2023/05/08 06:01:23;;;;;;;7.55;2.03;;;;;;;14.86;35.12;102774.78;5060544;28;20373;-73
2023/05/08 06:03:49;;;;;;;9.30;2.00;;;;;;;15.06;34.84;102786.00;5041645;28;20390;-73
2023/05/08 06:06:14;;;;;;;10.48;1.98;;;;;;;15.23;34.62;102790.25;5060146;28;20020;-72
2023/05/08 06:08:40;;;;;;;4.80;1.98;;;;;;;15.42;34.27;102787.06;5056612;28;20078;-72
2023/05/08 06:11:05;;;;;;;3.83;1.40;;;;;;;15.48;33.90;102758.34;5041435;28;20037;-72
2023/05/08 06:13:30;;;;;;;8.00;1.75;;;;;;;15.34;34.15;102770.88;5059966;28;20056;-72
2023/05/08 06:15:56;;;;;;;5.32;1.60;;;;;;;15.44;33.70;102757.03;5058108;28;20563;-72
2023/05/08 06:18:22;;;;;;;8.38;1.92;;;;;;;15.47;33.84;102762.94;5058661;28;20029;-72
2023/05/08 06:20:47;;;;;;;5.95;1.70;;;;;;;15.68;33.63;102762.25;5057614;28;20512;-72
2023/05/08 06:23:13;;;;;;;8.45;1.98;;;;;;;15.71;33.61;102769.19;5040868;28;20527;-72
2023/05/08 06:25:39;;;;;;;6.03;1.92;;;;;;;16.18;33.09;102766.09;5041441;28;20033;-72
2023/05/08 06:28:06;;;;;;;10.55;1.92;;;;;;;16.17;33.27;102767.13;5061497;28;20024;-72
2023/05/08 06:30:33;;;;;;;6.63;1.98;;;;;;;16.19;32.57;102742.50;5057612;28;20029;-72
2023/05/08 06:32:58;;;;;;;7.70;1.80;;;;;;;16.59;32.49;102775.63;5057182;28;20024;-72
2023/05/08 06:35:23;;;;;;;8.95;2.17;;;;;;;16.59;32.64;102770.19;5060151;28;20399;-72
2023/05/08 06:37:49;;;;;;;7.50;1.90;;;;;;;16.71;32.40;102757.75;5043100;28;20097;-72
2023/05/08 06:40:14;;;;;;;10.70;1.80;;;;;;;16.65;32.30;102770.25;5041942;28;20034;-72
2023/05/08 06:42:40;;;;;;;7.22;1.67;;;;;;;16.70;32.31;102766.97;5033002;28;20029;-72
2023/05/08 06:45:09;;;;;;;7.75;1.70;;;;;;;16.89;32.32;102765.53;5037968;28;20382;-72
2023/05/08 06:47:35;;;;;;;10.13;1.60;;;;;;;16.55;32.49;102774.28;5037997;28;20029;-72
2023/05/08 06:50:00;;;;;;;5.53;1.60;;;;;;;16.77;32.31;102765.19;5038456;28;20384;-72
2023/05/08 06:52:26;;;;;;;6.75;1.98;;;;;;;17.08;31.73;102764.03;5057994;28;20039;-72
2023/05/08 06:54:51;;;;;;;7.72;2.00;;;;;;;17.15;31.38;102770.38;5042042;28;20025;-72
2023/05/08 06:57:17;;;;;;;9.18;2.00;;;;;;;17.36;31.58;102769.53;5038591;28;20036;-72
2023/05/08 06:59:42;;;;;;;8.07;1.92;;;;;;;17.49;31.49;102763.34;5057409;28;20159;-72
2023/05/08 07:02:11;;;;;;;4.43;1.55;;;;;;;17.65;31.64;102759.47;5055567;28;20624;-72
2023/05/08 07:04:36;;;;;;;9.88;1.75;;;;;;;17.80;31.39;102763.81;5056199;28;20032;-72
2023/05/08 07:07:02;;;;;;;10.30;2.00;;;;;;;17.65;31.21;102752.16;5058755;28;20059;-72
2023/05/08 07:09:28;;;;;;;9.93;2.10;;;;;;;17.46;31.53;102758.31;5058420;28;20056;-72
2023/05/08 07:11:53;;;;;;;5.75;1.77;;;;;;;17.28;31.68;102751.44;5059739;28;20033;-72
2023/05/08 07:14:19;;;;;;;7.85;1.70;;;;;;;17.55;31.53;102733.47;5057476;28;20025;-72
2023/05/08 07:16:44;;;;;;;6.82;2.10;;;;;;;17.77;31.22;102752.47;5057303;28;20079;-72
2023/05/08 07:19:10;;;;;;;8.80;2.20;;;;;;;17.66;31.37;102742.94;5042615;28;20081;-72
2023/05/08 07:21:35;;;;;;;4.18;2.00;;;;;;;17.92;30.76;102749.66;5058482;28;20057;-72
2023/05/08 07:24:01;;;;;;;5.05;2.00;;;;;;;18.16;31.30;102743.69;5060044;28;20108;-72
2023/05/08 07:26:26;;;;;;;7.47;2.33;;;;;;;18.05;30.92;102747.00;5060467;28;20033;-72
2023/05/08 07:28:53;;;;;;;6.25;2.03;;;;;;;18.16;30.85;102738.25;5060445;28;20052;-72
2023/05/08 07:31:19;;;;;;;7.93;2.00;;;;;;;17.89;30.70;102730.97;5060806;28;20021;-72
2023/05/08 07:33:45;;;;;;;7.20;1.98;;;;;;;17.76;31.04;102732.56;5042105;28;20101;-72
2023/05/08 07:36:11;;;;;;;3.78;1.60;;;;;;;17.38;31.12;102719.31;5059561;28;20021;-72
2023/05/08 07:38:37;;;;;;;6.07;2.40;;;;;;;17.81;31.08;102743.72;5040630;28;20066;-72
2023/05/08 07:41:04;;;;;;;5.47;2.08;;;;;;;18.08;30.86;102739.25;5059556;28;20025;-72
2023/05/08 07:43:29;;;;;;;7.80;1.80;;;;;;;17.90;30.88;102738.94;5023752;28;20025;-72
2023/05/08 07:45:55;;;;;;;6.00;1.77;;;;;;;18.13;31.02;102757.72;5055122;28;20029;-72
2023/05/08 07:48:20;;;;;;;6.25;1.73;;;;;;;18.55;30.96;102753.06;5056944;28;20139;-72
2023/05/08 07:50:48;;;;;;;6.18;1.60;;;;;;;18.75;31.44;102762.19;5057261;28;20033;-72
2023/05/08 07:53:14;;;;;;;4.35;1.70;;;;;;;18.62;31.60;102737.56;5057103;28;20052;-72
2023/05/08 07:55:39;;;;;;;4.68;1.85;;;;;;;18.61;31.92;102754.13;5060640;28;20052;-72
2023/05/08 07:58:05;;;;;;;6.47;2.10;;;;;;;18.60;31.77;102760.63;5025854;28;20033;-72
2023/05/08 08:00:31;;;;;;;4.53;2.35;;;;;;;18.54;32.09;102749.50;5041239;28;20108;-72
2023/05/08 08:02:56;;;;;;;7.53;1.90;;;;;;;18.73;31.85;102761.53;5037182;28;20029;-71
2023/05/08 08:05:22;;;;;;;3.20;1.95;;;;;;;18.73;32.02;102764.25;5041373;28;20425;-72
2023/05/08 08:07:47;;;;;;;4.78;2.22;;;;;;;18.67;32.36;102762.31;5057494;28;20116;-72
2023/05/08 08:10:13;;;;;;;4.38;1.80;;;;;;;18.56;32.51;102752.03;5058021;28;20025;-72
2023/05/08 08:12:39;;;;;;;2.88;1.85;;;;;;;18.50;32.66;102769.19;5040952;28;20040;-72
2023/05/08 08:15:05;;;;;;;5.22;2.00;;;;;;;18.40;33.09;102774.19;5041958;28;20040;-72
2023/05/08 08:17:31;;;;;;;9.68;2.08;;;;;;;18.23;33.38;102773.69;5059548;28;20033;-72
2023/05/08 08:19:56;;;;;;;4.10;2.03;;;;;;;18.17;33.55;102772.59;5043113;28;20032;-72
2023/05/08 08:22:23;;;;;;;5.13;1.95;;;;;;;18.15;33.80;102769.25;5061609;28;20052;-72
2023/05/08 08:24:48;;;;;;;7.10;2.00;;;;;;;18.22;33.64;102761.97;5061370;28;20036;-72
2023/05/08 08:27:14;;;;;;;2.63;1.88;;;;;;;18.33;33.69;102765.16;5044355;28;20044;-72
2023/05/08 08:29:39;;;;;;;4.85;1.80;;;;;;;18.35;34.04;102763.06;5058507;28;20032;-72
2023/05/08 08:32:05;;;;;;;3.65;1.80;;;;;;;18.39;33.95;102767.06;5060313;28;20033;-72
2023/05/08 08:34:32;;;;;;;4.78;1.73;;;;;;;18.47;33.83;102758.69;5043655;28;20032;-72
2023/05/08 08:36:59;;;;;;;2.92;1.60;;;;;;;18.43;34.31;102762.88;5061745;28;20040;-72
2023/05/08 08:39:24;;;;;;;3.78;1.88;;;;;;;18.51;34.62;102768.16;5044018;28;20081;-72
2023/05/08 08:41:50;;;;;;;4.47;2.05;;;;;;;18.62;34.33;102764.00;5055420;28;20074;-72
2023/05/08 08:44:15;;;;;;;4.00;1.77;;;;;;;18.65;34.50;102775.34;5043161;28;20029;-72
2023/05/08 08:46:48;;;;;;;3.20;1.80;;;;;;;18.70;34.41;102778.28;5057559;28;20470;-72
2023/05/08 08:49:18;;;;;;;4.85;2.60;;;;;;;18.67;34.89;102775.97;5056358;28;20507;-72
2023/05/08 08:51:52;;;;;;;4.28;1.65;;;;;;;18.70;35.32;102780.16;5057486;28;20028;-72
2023/05/08 08:54:24;;;;;;;6.55;1.90;;;;;;;18.78;35.11;102775.41;5056063;28;20029;-72
2023/05/08 08:56:51;;;;;;;4.97;1.98;;;;;;;18.80;35.32;102777.09;5056310;28;20048;-72
2023/05/08 08:59:17;;;;;;;9.70;2.13;;;;;;;18.89;35.51;102778.56;5056303;28;20025;-72
2023/05/08 09:01:57;;;;;;;3.53;1.95;;;;;;;18.87;35.27;102769.75;5057410;28;20108;-72
2023/05/08 09:04:26;;;;;;;7.03;2.08;;;;;;;18.91;35.39;102785.50;5057131;28;20114;-72
2023/05/08 09:06:52;;;;;;;4.95;2.17;;;;;;;18.87;35.74;102781.50;5058050;28;20056;-72
2023/05/08 09:09:17;;;;;;;5.38;2.00;;;;;;;18.79;36.57;102778.97;5056762;28;20028;-72
2023/05/08 09:11:45;;;;;;;6.05;1.98;;;;;;;18.89;36.84;102778.56;5060246;28;20043;-72
2023/05/08 09:14:11;;;;;;;4.85;2.35;;;;;;;18.76;37.56;102774.75;5059170;28;20025;-72
2023/05/08 09:16:36;;;;;;;6.20;2.30;;;;;;;18.86;37.83;102768.06;5059692;28;20460;-72
2023/05/08 09:19:02;;;;;;;6.68;2.30;;;;;;;18.94;38.05;102776.91;5043175;28;20044;-72
2023/05/08 09:21:28;;;;;;;6.72;2.60;;;;;;;18.49;38.82;102713.84;5060173;28;20076;-72
2023/05/08 09:24:02;;;;;;;3.88;2.20;;;;;;;18.87;38.90;102753.38;5058649;28;20056;-72
2023/05/08 09:26:39;;;;;;;5.60;2.40;;;;;;;19.11;38.99;102773.81;5058953;28;20032;-72
2023/05/08 09:29:14;;;;;;;6.50;2.63;;;;;;;19.02;39.25;102748.59;5059486;28;20043;-72
2023/05/08 09:31:43;;;;;;;4.10;2.30;;;;;;;19.01;39.26;102764.13;5061121;28;20158;-72
2023/05/08 09:34:10;;;;;;;8.23;2.20;;;;;;;19.20;38.89;102767.06;5057238;28;20024;-72
2023/05/08 09:36:38;;;;;;;3.70;2.30;;;;;;;19.35;38.83;102755.97;5055850;28;20031;-72
2023/05/08 09:39:09;;;;;;;7.70;2.63;;;;;;;19.29;39.36;102756.78;5061374;28;20052;-73
2023/05/08 09:41:34;;;;;;;5.72;2.45;;;;;;;19.27;39.24;102747.97;5065974;28;20025;-73
2023/05/08 09:44:01;;;;;;;3.95;2.10;;;;;;;19.28;39.77;102753.22;5068367;28;20063;-73
2023/05/08 09:46:26;;;;;;;6.72;2.35;;;;;;;19.31;39.66;102744.63;5063873;28;20029;-73
2023/05/08 09:48:55;;;;;;;3.08;2.10;;;;;;;19.38;40.07;102744.63;5060007;28;20135;-73
2023/05/08 09:51:21;;;;;;;4.63;2.22;;;;;;;19.38;40.34;102750.09;5059605;28;20095;-73
2023/05/08 09:53:54;;;;;;;3.70;2.47;;;;;;;19.44;40.64;102741.06;5058638;28;20048;-74
2023/05/08 09:56:36;;;;;;;5.22;2.78;;;;;;;19.44;40.61;102741.06;5063274;28;20033;-73
2023/05/08 09:59:03;;;;;;;5.75;3.67;;;;;;;19.48;40.47;102739.56;5062520;28;20124;-73
2023/05/08 10:01:35;;;;;;;9.38;4.68;;;;;;;19.56;40.34;102733.88;5064106;28;20025;-73
2023/05/08 10:04:02;;;;;;;6.45;3.28;;;;;;;19.69;40.54;102731.16;5048504;28;20096;-73
2023/05/08 10:06:28;;;;;;;5.85;3.80;;;;;;;19.86;40.42;102725.22;5046852;28;20037;-73
2023/05/08 10:09:10;;;;;;;4.45;2.90;;;;;;;19.89;40.21;102730.28;5046350;28;20507;-73
2023/05/08 10:11:38;;;;;;;3.63;2.10;;;;;;;19.73;40.36;102728.84;5062506;28;20141;-73
2023/05/08 10:14:03;;;;;;;3.28;1.88;;;;;;;19.76;40.11;102720.22;5062178;28;20017;-73
2023/05/08 10:16:30;;;;;;;2.67;1.80;;;;;;;19.55;40.32;102715.00;5044677;28;20079;-73
2023/05/08 10:19:01;;;;;;;4.47;1.58;;;;;;;19.66;40.41;102709.72;5044515;28;20029;-73
2023/05/08 10:21:34;;;;;;;3.95;1.65;;;;;;;19.79;40.14;102708.03;5061687;28;20057;-73
2023/05/08 10:24:04;;;;;;;3.05;1.70;;;;;;;19.82;40.25;102718.53;5061672;28;20025;-74
2023/05/08 10:26:32;;;;;;;4.57;1.65;;;;;;;19.86;40.36;102715.16;5063828;28;20032;-73
2023/05/08 10:29:06;;;;;;;5.43;1.80;;;;;;;20.10;39.85;102719.06;5062868;28;20037;-72
2023/05/08 10:31:34;;;;;;;3.92;1.75;;;;;;;20.16;39.13;102720.94;5062513;28;20377;-73
2023/05/08 10:34:02;;;;;;;3.85;1.60;;;;;;;20.21;38.75;102723.03;5063951;28;20195;-73
2023/05/08 10:36:29;;;;;;;3.45;1.80;;;;;;;20.07;38.80;102702.28;5062661;28;20044;-73
2023/05/08 10:38:57;;;;;;;2.47;1.58;;;;;;;20.05;39.26;102709.84;5066428;28;20035;-73
2023/05/08 10:41:23;;;;;;;3.35;1.77;;;;;;;20.03;39.26;102715.50;5064270;28;20036;-73
2023/05/08 10:43:49;;;;;;;4.85;1.83;;;;;;;20.09;38.93;102706.44;5055860;28;20043;-73
2023/05/08 10:46:28;;;;;;;2.75;1.50;;;;;;;19.96;39.49;102687.38;5062965;28;20025;-73
2023/05/08 10:48:57;;;;;;;2.97;1.92;;;;;;;20.22;39.28;102702.00;5062180;28;20553;-73
2023/05/08 10:51:26;;;;;;;4.07;2.15;;;;;;;20.24;39.05;102706.19;5063509;28;20031;-74
2023/05/08 10:54:04;;;;;;;5.65;1.77;;;;;;;20.14;39.42;102701.19;5063157;28;20021;-73
2023/05/08 10:56:29;;;;;;;4.35;1.80;;;;;;;20.08;39.18;102703.94;5061884;28;20056;-73
2023/05/08 10:58:56;;;;;;;4.65;1.67;;;;;;;20.10;39.35;102699.13;5044693;28;20029;-73
2023/05/08 11:01:22;;;;;;;3.17;1.70;;;;;;;20.01;39.46;102676.66;5046055;28;20033;-73
2023/05/08 11:03:53;;;;;;;3.38;1.98;;;;;;;20.09;39.00;102690.06;5061790;28;20101;-73
2023/05/08 11:06:40;;;;;;;5.68;2.00;;;;;;;20.22;39.10;102702.00;5045949;28;20032;-74
2023/05/08 11:09:06;;;;;;;3.63;1.95;;;;;;;20.10;38.67;102693.66;5062945;28;20035;-73
2023/05/08 11:11:38;;;;;;;3.55;1.88;;;;;;;20.17;38.40;102688.97;5061892;28;20080;-73
2023/05/08 11:14:06;;;;;;;5.03;1.77;;;;;;;20.07;38.51;102683.97;5061656;28;20039;-73
2023/05/08 11:16:53;;;;;;;2.72;1.77;;;;;;;19.82;38.75;102675.66;5060264;28;20506;-73
2023/05/08 11:19:23;;;;;;;4.43;2.03;;;;;;;19.84;38.00;102683.66;5061631;28;20025;-73
2023/05/08 11:22:22;;;;;;;3.55;1.60;;;;;;;19.74;38.42;102681.38;5060076;28;20113;-73
2023/05/08 11:24:56;;;;;;;3.75;1.77;;;;;;;19.71;38.18;102668.97;5061381;28;20017;-73
2023/05/08 11:27:34;;;;;;;3.03;1.83;;;;;;;19.55;38.06;102653.03;5061818;28;20031;-73
2023/05/08 11:30:18;;;;;;;3.65;1.77;;;;;;;19.63;37.98;102671.91;5060081;28;20020;-73
2023/05/08 11:33:18;;;;;;;2.08;1.50;;;;;;;19.67;38.28;102662.28;5062425;28;20059;-73